sensor_id;sensor_type;location;lat;lon;timestamp;P1;durP1;ratioP1;P2;durP2;ratioP2
42144;SDS011;27813;43.516;11.890;2022-10-17T03:21:49;7.28;;;4.82;;
42144;SDS011;27813;43.516;11.890;2022-10-17T03:25:55;8.85;;;4.90;;
42144;SDS011;27813;43.516;11.890;2022-10-17T03:30:01;12.27;;;5.75;;
42144;SDS011;27813;43.516;11.890;2022-10-17T03:34:07;9.23;;;5.45;;
42144;SDS011;27813;43.516;11.890;2022-10-17T03:38:12;11.50;;;5.18;;
42144;SDS011;27813;43.516;11.890;2022-10-17T03:42:17;12.15;;;6.53;;
42144;SDS011;27813;43.516;11.890;2022-10-17T03:46:22;7.53;;;5.13;;
42144;SDS011;27813;43.516;11.890;2022-10-17T03:50:29;9.98;;;6.05;;
42144;SDS011;27813;43.516;11.890;2022-10-17T03:54:35;11.05;;;6.40;;
42144;SDS011;27813;43.516;11.890;2022-10-17T03:58:40;10.90;;;6.10;;
42144;SDS011;27813;43.516;11.890;2022-10-17T04:02:47;10.80;;;7.22;;
42144;SDS011;27813;43.516;11.890;2022-10-17T04:06:53;7.90;;;4.90;;
42144;SDS011;27813;43.516;11.890;2022-10-17T04:11:02;10.45;;;5.10;;
42144;SDS011;27813;43.516;11.890;2022-10-17T04:15:08;9.18;;;5.25;;
42144;SDS011;27813;43.516;11.890;2022-10-17T04:19:15;12.00;;;5.20;;
42144;SDS011;27813;43.516;11.890;2022-10-17T04:23:22;8.27;;;5.07;;
42144;SDS011;27813;43.516;11.890;2022-10-17T04:27:34;9.35;;;4.97;;
42144;SDS011;27813;43.516;11.890;2022-10-17T04:31:39;11.00;;;5.60;;
42144;SDS011;27813;43.516;11.890;2022-10-17T04:35:57;10.80;;;6.30;;
42144;SDS011;27813;43.516;11.890;2022-10-17T04:40:07;10.30;;;5.93;;
42144;SDS011;27813;43.516;11.890;2022-10-17T04:44:12;14.10;;;5.97;;
42144;SDS011;27813;43.516;11.890;2022-10-17T04:48:23;10.50;;;6.05;;
42144;SDS011;27813;43.516;11.890;2022-10-17T04:52:27;10.10;;;5.85;;
42144;SDS011;27813;43.516;11.890;2022-10-17T04:56:33;12.23;;;6.97;;
42144;SDS011;27813;43.516;11.890;2022-10-17T05:00:39;13.77;;;7.65;;
42144;SDS011;27813;43.516;11.890;2022-10-17T05:04:54;18.02;;;8.45;;
42144;SDS011;27813;43.516;11.890;2022-10-17T05:08:59;15.45;;;8.80;;
42144;SDS011;27813;43.516;11.890;2022-10-17T05:13:04;19.75;;;9.90;;
42144;SDS011;27813;43.516;11.890;2022-10-17T05:17:10;15.30;;;8.55;;
42144;SDS011;27813;43.516;11.890;2022-10-17T05:21:15;20.38;;;9.18;;
42144;SDS011;27813;43.516;11.890;2022-10-17T05:25:23;12.95;;;7.75;;
42144;SDS011;27813;43.516;11.890;2022-10-17T05:29:28;16.67;;;7.05;;
42144;SDS011;27813;43.516;11.890;2022-10-17T05:33:41;10.38;;;6.07;;
42144;SDS011;27813;43.516;11.890;2022-10-17T05:37:46;14.25;;;6.93;;
42144;SDS011;27813;43.516;11.890;2022-10-17T05:41:53;11.35;;;6.70;;
42144;SDS011;27813;43.516;11.890;2022-10-17T05:45:58;15.20;;;7.40;;
42144;SDS011;27813;43.516;11.890;2022-10-17T05:50:09;17.75;;;8.05;;
42144;SDS011;27813;43.516;11.890;2022-10-17T05:54:33;16.25;;;6.78;;
42144;SDS011;27813;43.516;11.890;2022-10-17T05:58:40;9.20;;;5.70;;
42144;SDS011;27813;43.516;11.890;2022-10-17T06:03:16;8.95;;;5.47;;
42144;SDS011;27813;43.516;11.890;2022-10-17T06:07:21;14.40;;;6.28;;
42144;SDS011;27813;43.516;11.890;2022-10-17T06:11:27;13.95;;;6.75;;
42144;SDS011;27813;43.516;11.890;2022-10-17T06:15:32;12.32;;;6.30;;
42144;SDS011;27813;43.516;11.890;2022-10-17T06:19:41;12.30;;;6.05;;
42144;SDS011;27813;43.516;11.890;2022-10-17T06:23:49;11.93;;;6.47;;
42144;SDS011;27813;43.516;11.890;2022-10-17T06:28:10;13.48;;;6.63;;
42144;SDS011;27813;43.516;11.890;2022-10-17T06:32:16;14.32;;;7.22;;
42144;SDS011;27813;43.516;11.890;2022-10-17T06:36:22;11.45;;;6.82;;
42144;SDS011;27813;43.516;11.890;2022-10-17T06:44:32;11.75;;;6.43;;
42144;SDS011;27813;43.516;11.890;2022-10-17T06:48:55;17.08;;;7.95;;
42144;SDS011;27813;43.516;11.890;2022-10-17T06:53:23;15.07;;;8.38;;
42144;SDS011;27813;43.516;11.890;2022-10-17T06:57:43;15.60;;;7.78;;
42144;SDS011;27813;43.516;11.890;2022-10-17T07:02:15;12.57;;;7.40;;
42144;SDS011;27813;43.516;11.890;2022-10-17T07:06:40;12.45;;;7.68;;
42144;SDS011;27813;43.516;11.890;2022-10-17T07:10:52;13.80;;;7.40;;
42144;SDS011;27813;43.516;11.890;2022-10-17T07:14:59;15.75;;;8.23;;
42144;SDS011;27813;43.516;11.890;2022-10-17T07:19:06;15.02;;;8.57;;
42144;SDS011;27813;43.516;11.890;2022-10-17T07:23:13;14.68;;;8.77;;
42144;SDS011;27813;43.516;11.890;2022-10-17T07:27:19;14.93;;;8.50;;
42144;SDS011;27813;43.516;11.890;2022-10-17T07:31:24;13.10;;;8.55;;
42144;SDS011;27813;43.516;11.890;2022-10-17T07:35:28;16.10;;;9.05;;
42144;SDS011;27813;43.516;11.890;2022-10-17T07:39:33;13.00;;;8.45;;
42144;SDS011;27813;43.516;11.890;2022-10-17T07:43:38;14.38;;;9.07;;
42144;SDS011;27813;43.516;11.890;2022-10-17T07:47:44;17.70;;;9.75;;
42144;SDS011;27813;43.516;11.890;2022-10-17T07:51:52;18.83;;;9.85;;
42144;SDS011;27813;43.516;11.890;2022-10-17T07:55:56;18.75;;;8.88;;
42144;SDS011;27813;43.516;11.890;2022-10-17T08:00:01;17.70;;;9.38;;
42144;SDS011;27813;43.516;11.890;2022-10-17T08:04:14;16.45;;;9.50;;
42144;SDS011;27813;43.516;11.890;2022-10-17T08:08:19;14.13;;;8.52;;
42144;SDS011;27813;43.516;11.890;2022-10-17T08:12:24;12.88;;;8.40;;
42144;SDS011;27813;43.516;11.890;2022-10-17T08:16:35;12.70;;;8.18;;
42144;SDS011;27813;43.516;11.890;2022-10-17T08:20:40;11.88;;;7.85;;
42144;SDS011;27813;43.516;11.890;2022-10-17T08:24:45;13.00;;;8.52;;
42144;SDS011;27813;43.516;11.890;2022-10-17T08:28:49;14.63;;;8.73;;
42144;SDS011;27813;43.516;11.890;2022-10-17T08:32:54;11.13;;;7.63;;
42144;SDS011;27813;43.516;11.890;2022-10-17T08:36:59;13.32;;;7.82;;
42144;SDS011;27813;43.516;11.890;2022-10-17T08:41:12;9.68;;;7.20;;
42144;SDS011;27813;43.516;11.890;2022-10-17T08:45:29;11.38;;;7.30;;
42144;SDS011;27813;43.516;11.890;2022-10-17T08:49:49;17.35;;;8.60;;
42144;SDS011;27813;43.516;11.890;2022-10-17T08:54:08;8.43;;;6.35;;
42144;SDS011;27813;43.516;11.890;2022-10-17T08:58:28;11.45;;;6.88;;
42144;SDS011;27813;43.516;11.890;2022-10-17T09:02:47;9.68;;;6.32;;
42144;SDS011;27813;43.516;11.890;2022-10-17T09:16:08;8.65;;;5.93;;
42144;SDS011;27813;43.516;11.890;2022-10-17T09:20:21;9.13;;;6.15;;
42144;SDS011;27813;43.516;11.890;2022-10-17T09:24:41;8.95;;;5.97;;
42144;SDS011;27813;43.516;11.890;2022-10-17T09:28:54;8.90;;;6.45;;
42144;SDS011;27813;43.516;11.890;2022-10-17T09:33:12;7.93;;;5.87;;
42144;SDS011;27813;43.516;11.890;2022-10-17T09:37:37;6.93;;;5.28;;
42144;SDS011;27813;43.516;11.890;2022-10-17T09:41:49;9.30;;;5.75;;
42144;SDS011;27813;43.516;11.890;2022-10-17T09:50:32;9.18;;;5.53;;
42144;SDS011;27813;43.516;11.890;2022-10-17T09:58:48;8.38;;;5.93;;
42144;SDS011;27813;43.516;11.890;2022-10-17T10:03:18;6.65;;;4.80;;
42144;SDS011;27813;43.516;11.890;2022-10-17T10:07:26;6.93;;;4.80;;
42144;SDS011;27813;43.516;11.890;2022-10-17T10:11:48;7.95;;;4.63;;
42144;SDS011;27813;43.516;11.890;2022-10-17T10:16:11;6.90;;;5.05;;
42144;SDS011;27813;43.516;11.890;2022-10-17T10:24:34;7.60;;;4.32;;
42144;SDS011;27813;43.516;11.890;2022-10-17T10:28:39;5.43;;;4.15;;
42144;SDS011;27813;43.516;11.890;2022-10-17T10:32:45;6.90;;;4.55;;
42144;SDS011;27813;43.516;11.890;2022-10-17T10:36:55;5.93;;;4.82;;
42144;SDS011;27813;43.516;11.890;2022-10-17T10:41:19;6.05;;;4.38;;
42144;SDS011;27813;43.516;11.890;2022-10-17T10:45:26;6.88;;;4.53;;
42144;SDS011;27813;43.516;11.890;2022-10-17T10:49:52;7.10;;;4.57;;
42144;SDS011;27813;43.516;11.890;2022-10-17T10:54:16;6.25;;;4.03;;
42144;SDS011;27813;43.516;11.890;2022-10-17T11:03:20;5.75;;;3.80;;
42144;SDS011;27813;43.516;11.890;2022-10-17T11:07:35;8.48;;;4.00;;
42144;SDS011;27813;43.516;11.890;2022-10-17T11:11:51;5.43;;;3.50;;
42144;SDS011;27813;43.516;11.890;2022-10-17T11:16:22;5.13;;;3.83;;
42144;SDS011;27813;43.516;11.890;2022-10-17T11:24:58;5.38;;;4.25;;
42144;SDS011;27813;43.516;11.890;2022-10-17T11:29:12;7.70;;;3.78;;
42144;SDS011;27813;43.516;11.890;2022-10-17T11:33:24;6.00;;;3.70;;
42144;SDS011;27813;43.516;11.890;2022-10-17T11:37:38;6.30;;;3.40;;
42144;SDS011;27813;43.516;11.890;2022-10-17T11:41:55;7.32;;;4.75;;
42144;SDS011;27813;43.516;11.890;2022-10-17T11:46:17;4.63;;;3.50;;
42144;SDS011;27813;43.516;11.890;2022-10-17T11:50:30;4.82;;;3.05;;
42144;SDS011;27813;43.516;11.890;2022-10-17T11:55:04;6.50;;;3.20;;
42144;SDS011;27813;43.516;11.890;2022-10-17T12:03:50;8.60;;;3.28;;
42144;SDS011;27813;43.516;11.890;2022-10-17T12:08:23;7.35;;;3.13;;
42144;SDS011;27813;43.516;11.890;2022-10-17T12:12:47;3.58;;;2.72;;
42144;SDS011;27813;43.516;11.890;2022-10-17T12:16:52;5.35;;;3.25;;
42144;SDS011;27813;43.516;11.890;2022-10-17T12:20:58;3.30;;;2.58;;
42144;SDS011;27813;43.516;11.890;2022-10-17T12:25:03;3.35;;;3.05;;
42144;SDS011;27813;43.516;11.890;2022-10-17T12:29:16;4.93;;;3.08;;
42144;SDS011;27813;43.516;11.890;2022-10-17T12:33:31;4.50;;;2.70;;
42144;SDS011;27813;43.516;11.890;2022-10-17T12:45:54;5.43;;;3.10;;
42144;SDS011;27813;43.516;11.890;2022-10-17T12:50:07;4.03;;;3.35;;
42144;SDS011;27813;43.516;11.890;2022-10-17T12:54:53;4.55;;;3.20;;
42144;SDS011;27813;43.516;11.890;2022-10-17T12:59:19;5.15;;;3.70;;
42144;SDS011;27813;43.516;11.890;2022-10-17T13:03:32;5.82;;;3.90;;
42144;SDS011;27813;43.516;11.890;2022-10-17T13:07:45;7.68;;;3.75;;
42144;SDS011;27813;43.516;11.890;2022-10-17T13:11:52;6.07;;;3.42;;
42144;SDS011;27813;43.516;11.890;2022-10-17T13:15:57;5.82;;;3.35;;
42144;SDS011;27813;43.516;11.890;2022-10-17T13:20:04;5.43;;;3.78;;
42144;SDS011;27813;43.516;11.890;2022-10-17T13:24:37;7.97;;;3.88;;
42144;SDS011;27813;43.516;11.890;2022-10-17T13:28:45;6.72;;;3.65;;
42144;SDS011;27813;43.516;11.890;2022-10-17T13:33:18;5.22;;;3.50;;
42144;SDS011;27813;43.516;11.890;2022-10-17T13:37:41;6.68;;;3.95;;
42144;SDS011;27813;43.516;11.890;2022-10-17T13:41:55;8.48;;;4.20;;
42144;SDS011;27813;43.516;11.890;2022-10-17T13:46:02;5.30;;;3.95;;
42144;SDS011;27813;43.516;11.890;2022-10-17T13:50:32;5.82;;;4.00;;
42144;SDS011;27813;43.516;11.890;2022-10-17T13:54:48;5.68;;;3.67;;
42144;SDS011;27813;43.516;11.890;2022-10-17T13:58:57;7.97;;;3.90;;
42144;SDS011;27813;43.516;11.890;2022-10-17T14:03:04;5.63;;;4.15;;
42144;SDS011;27813;43.516;11.890;2022-10-17T14:08:12;4.90;;;3.42;;
42144;SDS011;27813;43.516;11.890;2022-10-17T14:12:13;5.28;;;3.88;;
42144;SDS011;27813;43.516;11.890;2022-10-17T14:16:19;5.90;;;3.90;;
42144;SDS011;27813;43.516;11.890;2022-10-17T14:20:24;6.82;;;3.83;;
42144;SDS011;27813;43.516;11.890;2022-10-17T14:24:51;4.97;;;3.67;;
42144;SDS011;27813;43.516;11.890;2022-10-17T14:29:06;4.47;;;3.75;;
42144;SDS011;27813;43.516;11.890;2022-10-17T14:33:24;5.35;;;3.90;;
42144;SDS011;27813;43.516;11.890;2022-10-17T14:37:38;7.60;;;4.00;;
42144;SDS011;27813;43.516;11.890;2022-10-17T14:41:52;6.00;;;3.70;;
42144;SDS011;27813;43.516;11.890;2022-10-17T14:46:10;4.95;;;3.40;;
42144;SDS011;27813;43.516;11.890;2022-10-17T14:50:24;5.65;;;3.30;;
42144;SDS011;27813;43.516;11.890;2022-10-17T14:54:33;7.65;;;3.80;;
42144;SDS011;27813;43.516;11.890;2022-10-17T14:58:41;6.10;;;3.60;;
42144;SDS011;27813;43.516;11.890;2022-10-17T15:02:47;7.18;;;3.85;;
42144;SDS011;27813;43.516;11.890;2022-10-17T15:06:53;4.78;;;3.47;;
42144;SDS011;27813;43.516;11.890;2022-10-17T15:11:00;5.10;;;3.13;;
42144;SDS011;27813;43.516;11.890;2022-10-17T15:15:06;5.25;;;3.28;;
42144;SDS011;27813;43.516;11.890;2022-10-17T15:19:14;4.88;;;3.28;;
42144;SDS011;27813;43.516;11.890;2022-10-17T15:23:24;7.47;;;3.53;;
42144;SDS011;27813;43.516;11.890;2022-10-17T15:27:28;5.80;;;3.50;;
42144;SDS011;27813;43.516;11.890;2022-10-17T15:31:37;6.50;;;3.70;;
42144;SDS011;27813;43.516;11.890;2022-10-17T15:35:43;5.45;;;3.35;;
42144;SDS011;27813;43.516;11.890;2022-10-17T15:39:50;7.38;;;4.13;;
42144;SDS011;27813;43.516;11.890;2022-10-17T15:43:57;6.80;;;4.30;;
42144;SDS011;27813;43.516;11.890;2022-10-17T15:48:04;9.13;;;4.50;;
42144;SDS011;27813;43.516;11.890;2022-10-17T15:52:18;7.95;;;4.93;;
42144;SDS011;27813;43.516;11.890;2022-10-17T15:56:25;7.97;;;4.65;;
42144;SDS011;27813;43.516;11.890;2022-10-17T16:00:32;10.88;;;4.80;;
42144;SDS011;27813;43.516;11.890;2022-10-17T16:04:37;8.70;;;5.50;;
42144;SDS011;27813;43.516;11.890;2022-10-17T16:08:41;8.95;;;4.15;;
42144;SDS011;27813;43.516;11.890;2022-10-17T16:12:46;8.23;;;4.78;;
42144;SDS011;27813;43.516;11.890;2022-10-17T16:16:53;9.48;;;5.47;;
42144;SDS011;27813;43.516;11.890;2022-10-17T16:20:58;9.93;;;5.40;;
42144;SDS011;27813;43.516;11.890;2022-10-17T16:25:03;10.52;;;6.32;;
42144;SDS011;27813;43.516;11.890;2022-10-17T16:29:12;18.90;;;5.90;;
42144;SDS011;27813;43.516;11.890;2022-10-17T16:33:17;9.63;;;5.43;;
42144;SDS011;27813;43.516;11.890;2022-10-17T16:37:21;7.70;;;5.22;;
42144;SDS011;27813;43.516;11.890;2022-10-17T16:41:27;9.18;;;5.60;;
42144;SDS011;27813;43.516;11.890;2022-10-17T16:45:33;8.10;;;4.43;;
42144;SDS011;27813;43.516;11.890;2022-10-17T16:49:39;9.73;;;5.72;;
42144;SDS011;27813;43.516;11.890;2022-10-17T16:53:48;6.78;;;4.85;;
42144;SDS011;27813;43.516;11.890;2022-10-17T16:57:56;8.20;;;5.32;;
42144;SDS011;27813;43.516;11.890;2022-10-17T17:02:02;6.65;;;4.60;;
42144;SDS011;27813;43.516;11.890;2022-10-17T17:06:07;7.15;;;4.70;;
42144;SDS011;27813;43.516;11.890;2022-10-17T17:10:15;7.57;;;5.07;;
42144;SDS011;27813;43.516;11.890;2022-10-17T17:14:20;9.02;;;4.63;;
42144;SDS011;27813;43.516;11.890;2022-10-17T17:18:27;9.63;;;4.78;;
42144;SDS011;27813;43.516;11.890;2022-10-17T17:22:34;6.22;;;4.43;;
42144;SDS011;27813;43.516;11.890;2022-10-17T17:26:41;8.05;;;5.30;;
42144;SDS011;27813;43.516;11.890;2022-10-17T17:30:54;7.40;;;4.00;;
42144;SDS011;27813;43.516;11.890;2022-10-17T17:35:02;8.07;;;5.20;;
42144;SDS011;27813;43.516;11.890;2022-10-17T17:39:09;10.40;;;4.97;;
42144;SDS011;27813;43.516;11.890;2022-10-17T17:43:16;6.57;;;4.60;;
42144;SDS011;27813;43.516;11.890;2022-10-17T17:47:29;8.90;;;5.22;;
42144;SDS011;27813;43.516;11.890;2022-10-17T17:51:37;8.60;;;5.18;;
42144;SDS011;27813;43.516;11.890;2022-10-17T18:00:32;7.40;;;4.50;;
42144;SDS011;27813;43.516;11.890;2022-10-17T18:04:38;6.45;;;4.30;;
42144;SDS011;27813;43.516;11.890;2022-10-17T18:09:04;6.55;;;4.03;;
42144;SDS011;27813;43.516;11.890;2022-10-17T18:13:14;5.95;;;3.95;;
42144;SDS011;27813;43.516;11.890;2022-10-17T18:17:19;9.73;;;4.35;;
42144;SDS011;27813;43.516;11.890;2022-10-17T18:21:25;8.77;;;5.20;;
42144;SDS011;27813;43.516;11.890;2022-10-17T18:25:30;9.77;;;5.30;;
42144;SDS011;27813;43.516;11.890;2022-10-17T18:29:34;6.68;;;4.30;;
42144;SDS011;27813;43.516;11.890;2022-10-17T18:33:39;8.80;;;4.70;;
42144;SDS011;27813;43.516;11.890;2022-10-17T18:37:47;7.22;;;4.80;;
42144;SDS011;27813;43.516;11.890;2022-10-17T18:41:52;7.13;;;4.35;;
42144;SDS011;27813;43.516;11.890;2022-10-17T18:46:01;7.30;;;4.70;;
42144;SDS011;27813;43.516;11.890;2022-10-17T18:50:21;8.02;;;5.57;;
42144;SDS011;27813;43.516;11.890;2022-10-17T18:54:28;6.03;;;4.68;;
42144;SDS011;27813;43.516;11.890;2022-10-17T18:58:36;6.80;;;4.97;;
42144;SDS011;27813;43.516;11.890;2022-10-17T19:02:42;9.05;;;5.55;;
42144;SDS011;27813;43.516;11.890;2022-10-17T19:06:47;8.73;;;5.43;;
42144;SDS011;27813;43.516;11.890;2022-10-17T19:10:53;8.00;;;5.78;;
42144;SDS011;27813;43.516;11.890;2022-10-17T19:14:59;8.00;;;5.57;;
42144;SDS011;27813;43.516;11.890;2022-10-17T19:19:13;9.07;;;5.38;;
42144;SDS011;27813;43.516;11.890;2022-10-17T19:23:20;9.05;;;5.70;;
42144;SDS011;27813;43.516;11.890;2022-10-17T19:27:28;9.13;;;5.70;;
42144;SDS011;27813;43.516;11.890;2022-10-17T19:33:03;10.30;;;5.13;;
42144;SDS011;27813;43.516;11.890;2022-10-17T19:41:36;7.90;;;5.18;;
42144;SDS011;27813;43.516;11.890;2022-10-17T19:45:56;7.45;;;4.88;;
42144;SDS011;27813;43.516;11.890;2022-10-17T19:50:10;8.50;;;5.45;;
42144;SDS011;27813;43.516;11.890;2022-10-17T19:54:23;9.48;;;5.47;;
42144;SDS011;27813;43.516;11.890;2022-10-17T19:58:38;11.85;;;6.03;;
42144;SDS011;27813;43.516;11.890;2022-10-17T20:02:55;8.77;;;5.32;;
42144;SDS011;27813;43.516;11.890;2022-10-17T20:07:09;7.50;;;5.60;;
42144;SDS011;27813;43.516;11.890;2022-10-17T20:11:17;11.10;;;6.13;;
42144;SDS011;27813;43.516;11.890;2022-10-17T20:15:27;9.38;;;5.97;;
42144;SDS011;27813;43.516;11.890;2022-10-17T20:19:44;8.07;;;5.35;;
42144;SDS011;27813;43.516;11.890;2022-10-17T20:24:10;5.97;;;4.38;;
42144;SDS011;27813;43.516;11.890;2022-10-17T20:29:37;9.80;;;5.32;;
42144;SDS011;27813;43.516;11.890;2022-10-17T20:33:47;7.88;;;5.10;;
42144;SDS011;27813;43.516;11.890;2022-10-17T20:38:07;9.18;;;5.32;;
42144;SDS011;27813;43.516;11.890;2022-10-17T20:42:13;10.95;;;5.95;;
42144;SDS011;27813;43.516;11.890;2022-10-17T20:46:25;8.38;;;5.50;;
42144;SDS011;27813;43.516;11.890;2022-10-17T20:50:50;10.07;;;5.50;;
42144;SDS011;27813;43.516;11.890;2022-10-17T20:54:58;7.75;;;5.07;;
42144;SDS011;27813;43.516;11.890;2022-10-17T20:59:06;7.30;;;4.70;;
42144;SDS011;27813;43.516;11.890;2022-10-17T21:03:17;8.85;;;4.50;;
42144;SDS011;27813;43.516;11.890;2022-10-17T21:07:21;9.02;;;5.07;;
42144;SDS011;27813;43.516;11.890;2022-10-17T21:11:27;12.40;;;5.60;;
42144;SDS011;27813;43.516;11.890;2022-10-17T21:15:32;7.68;;;4.88;;
42144;SDS011;27813;43.516;11.890;2022-10-17T21:19:40;11.35;;;5.90;;
42144;SDS011;27813;43.516;11.890;2022-10-17T21:23:45;11.20;;;5.57;;
42144;SDS011;27813;43.516;11.890;2022-10-17T21:27:51;11.65;;;5.93;;
42144;SDS011;27813;43.516;11.890;2022-10-17T21:31:56;11.15;;;5.95;;
42144;SDS011;27813;43.516;11.890;2022-10-17T21:36:01;10.38;;;6.25;;
42144;SDS011;27813;43.516;11.890;2022-10-17T21:40:06;9.85;;;6.35;;
42144;SDS011;27813;43.516;11.890;2022-10-17T21:44:12;10.35;;;5.88;;
42144;SDS011;27813;43.516;11.890;2022-10-17T21:48:21;11.88;;;5.88;;
42144;SDS011;27813;43.516;11.890;2022-10-17T21:52:27;9.60;;;7.13;;
42144;SDS011;27813;43.516;11.890;2022-10-17T21:56:33;11.18;;;5.10;;
42144;SDS011;27813;43.516;11.890;2022-10-17T22:00:38;7.65;;;5.78;;
42144;SDS011;27813;43.516;11.890;2022-10-17T22:04:46;10.98;;;5.97;;
42144;SDS011;27813;43.516;11.890;2022-10-17T22:08:50;8.38;;;5.35;;
42144;SDS011;27813;43.516;11.890;2022-10-17T22:12:58;8.07;;;5.88;;
42144;SDS011;27813;43.516;11.890;2022-10-17T22:17:22;10.05;;;5.97;;
42144;SDS011;27813;43.516;11.890;2022-10-17T22:21:35;9.80;;;6.18;;
42144;SDS011;27813;43.516;11.890;2022-10-17T22:25:45;9.50;;;7.15;;
42144;SDS011;27813;43.516;11.890;2022-10-17T22:30:00;15.25;;;7.00;;
42144;SDS011;27813;43.516;11.890;2022-10-17T22:34:06;9.35;;;6.15;;
42144;SDS011;27813;43.516;11.890;2022-10-17T22:38:11;8.75;;;5.88;;
42144;SDS011;27813;43.516;11.890;2022-10-17T22:42:16;8.68;;;5.95;;
42144;SDS011;27813;43.516;11.890;2022-10-17T22:46:21;10.77;;;6.07;;
42144;SDS011;27813;43.516;11.890;2022-10-17T22:54:34;9.20;;;5.65;;
42144;SDS011;27813;43.516;11.890;2022-10-17T22:58:38;8.98;;;5.40;;
42144;SDS011;27813;43.516;11.890;2022-10-17T23:02:43;12.48;;;6.38;;
42144;SDS011;27813;43.516;11.890;2022-10-17T23:06:48;11.15;;;6.22;;
42144;SDS011;27813;43.516;11.890;2022-10-17T23:10:53;11.32;;;6.18;;
42144;SDS011;27813;43.516;11.890;2022-10-17T23:14:57;8.95;;;5.75;;
42144;SDS011;27813;43.516;11.890;2022-10-17T23:19:02;10.23;;;5.85;;
42144;SDS011;27813;43.516;11.890;2022-10-17T23:23:07;11.23;;;5.95;;
42144;SDS011;27813;43.516;11.890;2022-10-17T23:27:11;7.07;;;4.68;;
